sensor_id;sensor_type;location;lat;lon;timestamp;pressure;altitude;pressure_sealevel;temperature;humidity
57894;BME280;43710;47.460;19.034;2022-12-07T05:02:48;100438.13;;;6.05;89.09
57894;BME280;43710;47.460;19.034;2022-12-07T05:05:50;100438.13;;;6.05;89.09
57894;BME280;43710;47.460;19.034;2022-12-07T05:08:52;100441.50;;;5.78;100.00
57894;BME280;43710;47.460;19.034;2022-12-07T05:11:55;100443.22;;;5.68;92.45
57894;BME280;43710;47.460;19.034;2022-12-07T05:14:57;100436.31;;;5.67;87.57
57894;BME280;43710;47.460;19.034;2022-12-07T05:17:59;100436.19;;;5.56;89.60
57894;BME280;43710;47.460;19.034;2022-12-07T05:21:01;100439.38;;;5.58;87.36
57894;BME280;43710;47.460;19.034;2022-12-07T05:24:04;100428.38;;;5.72;85.98
57894;BME280;43710;47.460;19.034;2022-12-07T05:27:07;100429.12;;;5.89;85.42
57894;BME280;43710;47.460;19.034;2022-12-07T05:30:09;100440.78;;;5.83;92.53
57894;BME280;43710;47.460;19.034;2022-12-07T05:33:11;100438.47;;;5.70;86.99
57894;BME280;43710;47.460;19.034;2022-12-07T05:36:14;100429.12;;;5.89;100.00
57894;BME280;43710;47.460;19.034;2022-12-07T05:39:16;100422.69;;;5.85;89.82
57894;BME280;43710;47.460;19.034;2022-12-07T05:42:18;100416.94;;;5.71;90.90
57894;BME280;43710;47.460;19.034;2022-12-07T05:45:20;100416.75;;;5.78;92.22
57894;BME280;43710;47.460;19.034;2022-12-07T05:48:23;100417.81;;;5.77;98.00
57894;BME280;43710;47.460;19.034;2022-12-07T05:51:26;100420.78;;;5.80;100.00
57894;BME280;43710;47.460;19.034;2022-12-07T05:54:28;100420.34;;;5.67;90.33
57894;BME280;43710;47.460;19.034;2022-12-07T05:57:30;100427.37;;;5.56;90.01
57894;BME280;43710;47.460;19.034;2022-12-07T06:00:33;100422.56;;;5.75;88.52
57894;BME280;43710;47.460;19.034;2022-12-07T06:03:35;100429.38;;;5.87;87.09
57894;BME280;43710;47.460;19.034;2022-12-07T06:06:37;100420.97;;;5.74;95.30
57894;BME280;43710;47.460;19.034;2022-12-07T06:09:40;100419.50;;;5.83;99.65
57894;BME280;43710;47.460;19.034;2022-12-07T06:12:42;100427.37;;;5.95;100.00
57894;BME280;43710;47.460;19.034;2022-12-07T06:15:45;100426.66;;;5.82;93.51
57894;BME280;43710;47.460;19.034;2022-12-07T06:18:47;100423.75;;;5.84;93.38
57894;BME280;43710;47.460;19.034;2022-12-07T06:21:49;100423.75;;;5.84;88.77
57894;BME280;43710;47.460;19.034;2022-12-07T06:24:51;100418.44;;;5.84;95.69
57894;BME280;43710;47.460;19.034;2022-12-07T06:27:54;100428.75;;;5.80;95.66
57894;BME280;43710;47.460;19.034;2022-12-07T06:30:58;100430.31;;;5.76;89.61
57894;BME280;43710;47.460;19.034;2022-12-07T06:34:07;100427.97;;;5.80;91.41
57894;BME280;43710;47.460;19.034;2022-12-07T06:37:10;100435.78;;;6.08;99.62
57894;BME280;43710;47.460;19.034;2022-12-07T06:40:13;100429.22;;;5.94;100.00
57894;BME280;43710;47.460;19.034;2022-12-07T06:43:15;100435.84;;;6.14;98.47
57894;BME280;43710;47.460;19.034;2022-12-07T06:46:17;100435.53;;;6.10;96.84
57894;BME280;43710;47.460;19.034;2022-12-07T06:49:19;100439.69;;;6.23;90.91
57894;BME280;43710;47.460;19.034;2022-12-07T06:52:22;100442.09;;;6.02;89.33
57894;BME280;43710;47.460;19.034;2022-12-07T06:55:25;100443.09;;;5.96;92.87
57894;BME280;43710;47.460;19.034;2022-12-07T06:58:27;100444.44;;;5.99;92.06
57894;BME280;43710;47.460;19.034;2022-12-07T07:01:30;100449.22;;;5.97;88.99
57894;BME280;43710;47.460;19.034;2022-12-07T07:04:33;100446.13;;;6.05;94.30
57894;BME280;43710;47.460;19.034;2022-12-07T07:07:35;100439.69;;;6.23;92.43
57894;BME280;43710;47.460;19.034;2022-12-07T07:10:57;100449.38;;;6.12;94.61
57894;BME280;43710;47.460;19.034;2022-12-07T07:13:59;100442.28;;;5.96;97.07
57894;BME280;43710;47.460;19.034;2022-12-07T07:17:04;100442.09;;;6.02;98.56
57894;BME280;43710;47.460;19.034;2022-12-07T07:20:07;100441.16;;;6.14;100.00
57894;BME280;43710;47.460;19.034;2022-12-07T07:23:09;100441.69;;;6.16;92.37
57894;BME280;43710;47.460;19.034;2022-12-07T07:26:11;100447.78;;;6.11;91.83
57894;BME280;43710;47.460;19.034;2022-12-07T07:29:14;100451.13;;;6.23;90.54
57894;BME280;43710;47.460;19.034;2022-12-07T07:32:16;100452.69;;;6.19;92.08
57894;BME280;43710;47.460;19.034;2022-12-07T07:35:18;100448.41;;;6.18;94.00
57894;BME280;43710;47.460;19.034;2022-12-07T07:38:21;100451.13;;;6.23;96.79
57894;BME280;43710;47.460;19.034;2022-12-07T07:41:23;100451.84;;;6.41;96.09
57894;BME280;43710;47.460;19.034;2022-12-07T07:44:26;100448.91;;;6.42;99.43
57894;BME280;43710;47.460;19.034;2022-12-07T07:47:36;100452.09;;;6.39;92.10
57894;BME280;43710;47.460;19.034;2022-12-07T07:50:38;100445.72;;;6.40;95.21
57894;BME280;43710;47.460;19.034;2022-12-07T07:53:41;100446.22;;;6.37;92.29
57894;BME280;43710;47.460;19.034;2022-12-07T07:56:43;100449.34;;;6.56;100.00
57894;BME280;43710;47.460;19.034;2022-12-07T07:59:45;100446.38;;;6.52;91.98
57894;BME280;43710;47.460;19.034;2022-12-07T08:02:51;100449.97;;;6.68;100.00
57894;BME280;43710;47.460;19.034;2022-12-07T08:05:54;100445.50;;;6.74;100.00
57894;BME280;43710;47.460;19.034;2022-12-07T08:08:56;100456.88;;;6.64;89.59
57894;BME280;43710;47.460;19.034;2022-12-07T08:12:01;100450.84;;;6.74;100.00
57894;BME280;43710;47.460;19.034;2022-12-07T08:15:04;100452.50;;;6.80;94.65
57894;BME280;43710;47.460;19.034;2022-12-07T08:18:07;100463.09;;;6.75;90.00
57894;BME280;43710;47.460;19.034;2022-12-07T08:21:12;100459.91;;;6.78;95.25
57894;BME280;43710;47.460;19.034;2022-12-07T08:24:16;100458.31;;;6.77;88.91
57894;BME280;43710;47.460;19.034;2022-12-07T08:27:18;100454.16;;;6.86;97.61
57894;BME280;43710;47.460;19.034;2022-12-07T08:30:21;100459.00;;;6.94;100.00
57894;BME280;43710;47.460;19.034;2022-12-07T08:33:23;100461.66;;;6.94;92.04
57894;BME280;43710;47.460;19.034;2022-12-07T08:36:26;100463.22;;;6.90;89.12
57894;BME280;43710;47.460;19.034;2022-12-07T08:39:29;100466.25;;;6.99;92.07
57894;BME280;43710;47.460;19.034;2022-12-07T08:42:33;100469.41;;;6.96;87.99
57894;BME280;43710;47.460;19.034;2022-12-07T08:45:42;100471.88;;;7.02;88.21
57894;BME280;43710;47.460;19.034;2022-12-07T08:49:01;100466.56;;;7.07;90.67
57894;BME280;43710;47.460;19.034;2022-12-07T08:52:04;100467.44;;;7.18;92.84
57894;BME280;43710;47.460;19.034;2022-12-07T08:55:09;100464.88;;;7.28;99.97
57894;BME280;43710;47.460;19.034;2022-12-07T08:58:12;100470.69;;;7.20;92.30
57894;BME280;43710;47.460;19.034;2022-12-07T09:01:15;100474.34;;;7.51;92.12
57894;BME280;43710;47.460;19.034;2022-12-07T09:04:17;100466.78;;;7.38;85.44
57894;BME280;43710;47.460;19.034;2022-12-07T09:07:20;100470.56;;;7.42;89.11
57894;BME280;43710;47.460;19.034;2022-12-07T09:10:22;100469.56;;;7.48;84.62
57894;BME280;43710;47.460;19.034;2022-12-07T09:13:25;100463.38;;;7.48;85.93
57894;BME280;43710;47.460;19.034;2022-12-07T09:16:27;100463.16;;;7.49;90.81
57894;BME280;43710;47.460;19.034;2022-12-07T09:19:30;100454.91;;;7.56;84.21
57894;BME280;43710;47.460;19.034;2022-12-07T09:22:32;100451.16;;;7.52;87.09
57894;BME280;43710;47.460;19.034;2022-12-07T09:25:35;100450.66;;;7.55;87.63
57894;BME280;43710;47.460;19.034;2022-12-07T09:28:38;100450.09;;;7.58;95.99
57894;BME280;43710;47.460;19.034;2022-12-07T09:31:40;100454.84;;;7.93;91.18
57894;BME280;43710;47.460;19.034;2022-12-07T09:34:42;100451.56;;;7.81;89.02
57894;BME280;43710;47.460;19.034;2022-12-07T09:37:45;100453.19;;;7.87;96.00
57894;BME280;43710;47.460;19.034;2022-12-07T09:40:47;100448.41;;;7.89;92.77
57894;BME280;43710;47.460;19.034;2022-12-07T09:43:51;100446.53;;;7.85;84.01
57894;BME280;43710;47.460;19.034;2022-12-07T09:46:54;100444.75;;;8.11;89.64
57894;BME280;43710;47.460;19.034;2022-12-07T09:50:12;100437.81;;;8.05;90.17
57894;BME280;43710;47.460;19.034;2022-12-07T09:53:23;100439.41;;;8.11;85.16
57894;BME280;43710;47.460;19.034;2022-12-07T09:56:29;100438.38;;;8.12;76.25
57894;BME280;43710;47.460;19.034;2022-12-07T09:59:32;100434.59;;;8.03;79.55
57894;BME280;43710;47.460;19.034;2022-12-07T10:02:40;100432.12;;;7.91;75.30
57894;BME280;43710;47.460;19.034;2022-12-07T10:05:50;100433.19;;;7.90;74.60
57894;BME280;43710;47.460;19.034;2022-12-07T10:08:53;100424.13;;;7.91;76.51
57894;BME280;43710;47.460;19.034;2022-12-07T10:12:13;100427.53;;;7.81;77.15
57894;BME280;43710;47.460;19.034;2022-12-07T10:15:15;100415.25;;;7.75;75.04
57894;BME280;43710;47.460;19.034;2022-12-07T10:18:33;100418.50;;;7.87;73.69
57894;BME280;43710;47.460;19.034;2022-12-07T10:21:37;100428.66;;;7.90;74.44
57894;BME280;43710;47.460;19.034;2022-12-07T10:24:41;100413.19;;;7.97;78.62
57894;BME280;43710;47.460;19.034;2022-12-07T10:27:57;100421.44;;;7.91;78.49
57894;BME280;43710;47.460;19.034;2022-12-07T10:31:03;100424.16;;;7.96;82.08
57894;BME280;43710;47.460;19.034;2022-12-07T10:34:21;100421.53;;;8.11;80.10
57894;BME280;43710;47.460;19.034;2022-12-07T10:37:24;100408.72;;;8.13;76.66
57894;BME280;43710;47.460;19.034;2022-12-07T10:40:35;100409.78;;;8.17;77.71
57894;BME280;43710;47.460;19.034;2022-12-07T10:43:52;100407.63;;;8.09;74.37
57894;BME280;43710;47.460;19.034;2022-12-07T10:50:13;100403.88;;;7.95;70.11
57894;BME280;43710;47.460;19.034;2022-12-07T10:53:33;100413.13;;;7.77;71.17
57894;BME280;43710;47.460;19.034;2022-12-07T11:00:20;100408.44;;;8.10;71.26
57894;BME280;43710;47.460;19.034;2022-12-07T11:03:27;100406.31;;;8.12;76.87
57894;BME280;43710;47.460;19.034;2022-12-07T11:06:39;100404.16;;;7.98;69.42
57894;BME280;43710;47.460;19.034;2022-12-07T11:09:57;100399.56;;;7.94;69.85
57894;BME280;43710;47.460;19.034;2022-12-07T11:20:15;100393.53;;;8.19;76.67
57894;BME280;43710;47.460;19.034;2022-12-07T11:23:34;100393.81;;;8.33;77.48
57894;BME280;43710;47.460;19.034;2022-12-07T11:33:09;100384.47;;;8.35;72.99
57894;BME280;43710;47.460;19.034;2022-12-07T11:36:31;100378.34;;;8.35;71.93
57894;BME280;43710;47.460;19.034;2022-12-07T11:39:41;100384.72;;;8.34;71.55
57894;BME280;43710;47.460;19.034;2022-12-07T11:42:53;100385.59;;;8.44;70.61
57894;BME280;43710;47.460;19.034;2022-12-07T11:46:07;100375.41;;;8.46;69.57
57894;BME280;43710;47.460;19.034;2022-12-07T11:49:21;100373.81;;;8.40;69.83
57894;BME280;43710;47.460;19.034;2022-12-07T11:52:32;100383.19;;;8.48;73.12
57894;BME280;43710;47.460;19.034;2022-12-07T11:58:48;100396.28;;;8.60;69.01
57894;BME280;43710;47.460;19.034;2022-12-07T12:02:07;100401.00;;;8.37;67.95
57894;BME280;43710;47.460;19.034;2022-12-07T12:05:21;100393.03;;;8.47;69.01
57894;BME280;43710;47.460;19.034;2022-12-07T12:08:27;100387.44;;;8.54;68.63
57894;BME280;43710;47.460;19.034;2022-12-07T12:15:47;100379.19;;;8.56;80.90
57894;BME280;43710;47.460;19.034;2022-12-07T12:19:54;100369.81;;;8.58;67.11
57894;BME280;43710;47.460;19.034;2022-12-07T12:22:40;100356.47;;;8.68;66.53
57894;BME280;43710;47.460;19.034;2022-12-07T12:25:59;100346.03;;;8.62;66.95
57894;BME280;43710;47.460;19.034;2022-12-07T12:29:06;100344.72;;;8.64;68.75
57894;BME280;43710;47.460;19.034;2022-12-07T12:32:15;100339.63;;;8.53;66.00
57894;BME280;43710;47.460;19.034;2022-12-07T12:35:45;100336.94;;;8.47;68.49
57894;BME280;43710;47.460;19.034;2022-12-07T12:39:11;100340.69;;;8.46;66.37
57894;BME280;43710;47.460;19.034;2022-12-07T12:42:18;100331.06;;;8.56;76.43
57894;BME280;43710;47.460;19.034;2022-12-07T12:45:26;100327.84;;;8.54;67.98
57894;BME280;43710;47.460;19.034;2022-12-07T12:48:30;100330.53;;;8.59;73.78
57894;BME280;43710;47.460;19.034;2022-12-07T12:51:39;100333.75;;;8.71;76.29
57894;BME280;43710;47.460;19.034;2022-12-07T13:04:59;100334.28;;;8.63;71.11
57894;BME280;43710;47.460;19.034;2022-12-07T13:08:18;100339.06;;;8.61;70.31
57894;BME280;43710;47.460;19.034;2022-12-07T13:11:36;100344.72;;;8.75;75.49
57894;BME280;43710;47.460;19.034;2022-12-07T13:14:56;100344.44;;;8.71;68.99
57894;BME280;43710;47.460;19.034;2022-12-07T13:18:01;100345.78;;;8.68;67.08
57894;BME280;43710;47.460;19.034;2022-12-07T13:24:12;100342.03;;;8.64;67.37
57894;BME280;43710;47.460;19.034;2022-12-07T13:27:15;100344.69;;;8.59;69.17
57894;BME280;43710;47.460;19.034;2022-12-07T13:30:21;100347.38;;;8.64;70.51
57894;BME280;43710;47.460;19.034;2022-12-07T13:33:27;100348.44;;;8.68;65.60
57894;BME280;43710;47.460;19.034;2022-12-07T13:36:39;100349.75;;;8.61;65.42
57894;BME280;43710;47.460;19.034;2022-12-07T13:39:46;100350.56;;;8.56;69.80
57894;BME280;43710;47.460;19.034;2022-12-07T13:42:57;100346.56;;;8.54;66.33
57894;BME280;43710;47.460;19.034;2022-12-07T13:46:00;100349.22;;;8.54;65.87
57894;BME280;43710;47.460;19.034;2022-12-07T13:49:23;100354.06;;;8.41;63.56
57894;BME280;43710;47.460;19.034;2022-12-07T13:52:29;100363.13;;;8.40;63.38
57894;BME280;43710;47.460;19.034;2022-12-07T13:55:32;100358.00;;;8.34;65.91
57894;BME280;43710;47.460;19.034;2022-12-07T13:58:34;100358.00;;;8.23;63.65
57894;BME280;43710;47.460;19.034;2022-12-07T14:01:37;100362.00;;;8.21;62.73
57894;BME280;43710;47.460;19.034;2022-12-07T14:04:39;100369.22;;;8.15;63.55
57894;BME280;43710;47.460;19.034;2022-12-07T14:07:57;100369.75;;;8.22;65.95
57894;BME280;43710;47.460;19.034;2022-12-07T14:11:01;100370.31;;;8.24;70.43
57894;BME280;43710;47.460;19.034;2022-12-07T14:14:03;100360.13;;;8.27;64.42
57894;BME280;43710;47.460;19.034;2022-12-07T14:17:18;100367.62;;;8.24;65.52
57894;BME280;43710;47.460;19.034;2022-12-07T14:20:38;100365.75;;;8.30;68.66
57894;BME280;43710;47.460;19.034;2022-12-07T14:23:41;100364.69;;;8.26;70.58
57894;BME280;43710;47.460;19.034;2022-12-07T14:26:45;100367.34;;;8.26;72.35
57894;BME280;43710;47.460;19.034;2022-12-07T14:29:48;100359.88;;;8.33;72.10
57894;BME280;43710;47.460;19.034;2022-12-07T14:32:54;100363.09;;;8.30;66.35
57894;BME280;43710;47.460;19.034;2022-12-07T14:35:57;100364.69;;;8.26;72.57
57894;BME280;43710;47.460;19.034;2022-12-07T14:39:00;100363.88;;;8.20;71.24
57894;BME280;43710;47.460;19.034;2022-12-07T14:42:02;100363.88;;;8.26;73.04
57894;BME280;43710;47.460;19.034;2022-12-07T14:45:06;100370.81;;;8.27;68.86
57894;BME280;43710;47.460;19.034;2022-12-07T14:48:12;100375.87;;;8.13;70.85
57894;BME280;43710;47.460;19.034;2022-12-07T14:51:37;100380.59;;;7.90;69.50
57894;BME280;43710;47.460;19.034;2022-12-07T14:55:01;100376.06;;;7.91;70.12
57894;BME280;43710;47.460;19.034;2022-12-07T14:58:03;100378.72;;;7.81;71.95
57894;BME280;43710;47.460;19.034;2022-12-07T15:01:06;100388.59;;;7.75;74.89
57894;BME280;43710;47.460;19.034;2022-12-07T15:04:08;100386.13;;;7.63;71.41
57894;BME280;43710;47.460;19.034;2022-12-07T15:07:18;100389.03;;;7.57;74.56
57894;BME280;43710;47.460;19.034;2022-12-07T15:10:24;100380.22;;;7.61;82.89
57894;BME280;43710;47.460;19.034;2022-12-07T15:13:26;100387.47;;;7.66;73.90
57894;BME280;43710;47.460;19.034;2022-12-07T15:16:47;100399.13;;;7.54;75.73
57894;BME280;43710;47.460;19.034;2022-12-07T15:20:12;100400.47;;;7.52;74.44
57894;BME280;43710;47.460;19.034;2022-12-07T15:23:15;100400.72;;;7.45;75.34
57894;BME280;43710;47.460;19.034;2022-12-07T15:26:17;100401.97;;;7.38;73.19
57894;BME280;43710;47.460;19.034;2022-12-07T15:29:20;100401.97;;;7.38;77.77
57894;BME280;43710;47.460;19.034;2022-12-07T15:32:24;100401.97;;;7.33;72.38
57894;BME280;43710;47.460;19.034;2022-12-07T15:35:27;100401.41;;;7.25;71.52
57894;BME280;43710;47.460;19.034;2022-12-07T15:38:29;100405.88;;;7.20;82.24
57894;BME280;43710;47.460;19.034;2022-12-07T15:41:52;100410.88;;;7.06;73.71
57894;BME280;43710;47.460;19.034;2022-12-07T15:44:54;100421.22;;;7.02;74.69
57894;BME280;43710;47.460;19.034;2022-12-07T15:48:06;100418.22;;;6.94;83.06
57894;BME280;43710;47.460;19.034;2022-12-07T15:51:29;100429.38;;;6.86;75.58
57894;BME280;43710;47.460;19.034;2022-12-07T15:54:32;100430.09;;;6.81;80.70
57894;BME280;43710;47.460;19.034;2022-12-07T15:57:36;100424.28;;;6.84;77.60
57894;BME280;43710;47.460;19.034;2022-12-07T16:00:38;100427.22;;;6.82;75.62
57894;BME280;43710;47.460;19.034;2022-12-07T16:03:41;100423.59;;;6.67;76.32
57894;BME280;43710;47.460;19.034;2022-12-07T16:06:43;100429.72;;;6.67;75.09
57894;BME280;43710;47.460;19.034;2022-12-07T16:09:47;100431.41;;;6.46;78.58
57894;BME280;43710;47.460;19.034;2022-12-07T16:12:49;100426.47;;;6.60;74.23
57894;BME280;43710;47.460;19.034;2022-12-07T16:15:51;100434.06;;;6.46;76.01
57894;BME280;43710;47.460;19.034;2022-12-07T16:18:55;100429.16;;;6.38;73.82
57894;BME280;43710;47.460;19.034;2022-12-07T16:21:57;100422.81;;;6.39;81.87
57894;BME280;43710;47.460;19.034;2022-12-07T16:25:00;100419.47;;;6.27;74.35
57894;BME280;43710;47.460;19.034;2022-12-07T16:28:03;100420.28;;;6.27;74.61
57894;BME280;43710;47.460;19.034;2022-12-07T16:31:07;100422.19;;;6.32;75.09
57894;BME280;43710;47.460;19.034;2022-12-07T16:34:11;100413.06;;;6.23;75.59
57894;BME280;43710;47.460;19.034;2022-12-07T16:37:14;100421.88;;;6.28;73.85
57894;BME280;43710;47.460;19.034;2022-12-07T16:40:16;100425.59;;;6.27;74.65
